Henry, Nebraska
Current Conditions -  °F | °C
As of 1:53 PM on Thursday 23 Oct 2014 (Local Time) from KTOR Reporting Station
Clear Clear  
Wind Chill: 74°   Ceiling: Unl
Heat Index: 74°   Visibility: 10mi
Dew Point: 31°   Wind: 12mph
Humidity: 21%   Direction: 290°WNW
Pressure: 30"   Gusts: 21mph
Location:  42°N, 104.05°W
Report Text: KTOR 231953Z AUTO 29010G18KT 10SM CLR 23/M01 A3000 RMK AO2 SLP136 T02331006
Loading
Personal Weather Stations






























Interactive Weather Map
Tropical Storm Tracking
New forecast layout! Learn more

10-Day Weather Forecast

Advertisements
Track Severe Weather on mobile